Boise, ID (83705)

7:42 PM MDT on October 01, 2014 (GMT -0600)
APRSWXNET Boise ID US | Change Station
CLOSE
Current Station
Personal Weather Station
Location: Boise, ID
Elevation: 2847 ft
Nearby Weather Stations

Elev 2847 ft 43.61 °N, 116.20 °W | Updated 42 minutes ago

Clear
Clear
59 °F
Feels Like 59 °F
N
3
Wind Variable Wind from SE
Gusts 6.0 mph

Today
High -- | Low -- °F
--% Chance of Precip.
Yesterday
High -- | Low -- °F
Precip. -- in
7:42 AM 7:25 PM
First Quarter, 53% visible
Pressure 30.13 in
Visibility 10.0 miles
Clouds Clear
Dew Point 35 °F
Humidity 40%
Rainfall 0.00 in
Snow Depth 0 in , 0 in , 0 in
UV 0 out of 12
Pollen 7.40 out of 12
PM2.5 Good
Flu Activity Not available.
METAR KBOI 020053Z 34006KT 10SM CLR 16/01 A3014 RMK AO2 SLP202 T01610006

More Conditions Fewer Conditions

Pressure 30.13 in
Visibility 10.0 miles
Clouds Clear
Dew Point 35 °F
Humidity 40%
Rainfall 0.00 in
Snow Depth 0 in , 0 in , 0 in
UV 0 out of 12
Pollen 7.40 out of 12
PM2.5 Good
Flu Activity Not available.
METAR KBOI 020053Z 34006KT 10SM CLR 16/01 A3014 RMK AO2 SLP202 T01610006

More Conditions Fewer Conditions

10-Day Weather Forecast

Almanac

Astronomy

Oct. 01, 2014 Rise Set
Actual Time 7:42 AM MDT 7:25 PM MDT
Civil Twilight 7:13 AM MDT 7:54 PM MDT
Nautical Twilight 6:40 AM MDT 8:27 PM MDT
Astronomical Twilight 6:06 AM MDT 9:00 PM MDT
Moon 2:54 PM MDT (10/1) No Moon Set
Length of Visible Light 12h 40m
Length of Day
11h 43m
Tomorrow will be 2m 58s shorter.
First Quarter, 53% of the Moon is Illuminated
Today
First Quarter
Oct 8
Full
Oct 15
Last Quarter
Oct 23
New
Oct 30
First Quarter

Today's Extremes

State Highs State Lows

Community

WunderPhotos

Upload Photos

1,758,118 photos uploaded!

WunderBlogs® & News

Nearby

Air Quality

  Air Quality AQ Index Pollutant
Yesterday Good
OZONE
Yesterday Good
PM10
Current Good
PM2.5
Wednesday Good
OZONE
Wednesday Good
PM2.5
Thursday Good
OZONE
Friday Good
OZONE

Snow Depth

Station Depth Elevation
Sherwin 0 in 3200 ft
Hilts Creek 0 in 8000 ft
Squaw Flat 0 in 6240 ft
Morgan Creek 0 in 7600 ft
Secesh Summit 0 in 6520 ft

Earthquake Activity

City Distance Mag. Time & Date
No recent earthquake activity has been reported nearby.
Minimum magnitude displayed is 2.5.

Coastal Water Temperatures

Place Temperature
No Stations Reporting

Nearby Weather Stations